sensor_id;sensor_type;location;lat;lon;timestamp;pressure;altitude;pressure_sealevel;temperature;humidity
5053;BME280;2545;50.892;5.740;2024-02-15T00:00:47;56410.16;;;-142.21;100.00
5053;BME280;2545;50.892;5.740;2024-02-15T00:03:13;56382.69;;;-142.21;100.00
5053;BME280;2545;50.892;5.740;2024-02-15T00:05:39;56390.53;;;-142.21;100.00
5053;BME280;2545;50.892;5.740;2024-02-15T00:08:05;56404.28;;;-142.21;100.00
5053;BME280;2545;50.892;5.740;2024-02-15T00:10:31;56418.00;;;-142.21;100.00
5053;BME280;2545;50.892;5.740;2024-02-15T00:12:57;56363.09;;;-142.21;100.00
5053;BME280;2545;50.892;5.740;2024-02-15T00:15:23;56400.34;;;-142.21;100.00
5053;BME280;2545;50.892;5.740;2024-02-15T00:17:49;56419.97;;;-142.21;100.00
5053;BME280;2545;50.892;5.740;2024-02-15T00:20:17;56392.50;;;-142.21;100.00
5053;BME280;2545;50.892;5.740;2024-02-15T00:22:43;56421.91;;;-142.21;100.00
5053;BME280;2545;50.892;5.740;2024-02-15T00:25:09;56378.78;;;-142.21;100.00
5053;BME280;2545;50.892;5.740;2024-02-15T00:27:36;56368.97;;;-142.21;100.00
5053;BME280;2545;50.892;5.740;2024-02-15T00:30:02;56406.22;;;-142.21;100.00
5053;BME280;2545;50.892;5.740;2024-02-15T00:32:28;56419.97;;;-142.21;100.00
5053;BME280;2545;50.892;5.740;2024-02-15T00:34:55;56445.44;;;-142.21;100.00
5053;BME280;2545;50.892;5.740;2024-02-15T00:37:20;56419.97;;;-142.21;100.00
5053;BME280;2545;50.892;5.740;2024-02-15T00:39:46;56410.16;;;-142.21;100.00
5053;BME280;2545;50.892;5.740;2024-02-15T00:42:11;56406.22;;;-142.21;100.00
5053;BME280;2545;50.892;5.740;2024-02-15T00:44:39;56425.84;;;-142.21;100.00
5053;BME280;2545;50.892;5.740;2024-02-15T00:47:04;56443.50;;;-142.21;100.00
5053;BME280;2545;50.892;5.740;2024-02-15T00:49:30;56404.28;;;-142.21;100.00
5053;BME280;2545;50.892;5.740;2024-02-15T00:51:55;56402.31;;;-142.21;100.00
5053;BME280;2545;50.892;5.740;2024-02-15T00:54:21;56418.00;;;-142.21;100.00
5053;BME280;2545;50.892;5.740;2024-02-15T00:56:48;56414.06;;;-142.21;100.00
5053;BME280;2545;50.892;5.740;2024-02-15T00:59:13;56392.50;;;-142.21;100.00
5053;BME280;2545;50.892;5.740;2024-02-15T01:01:40;56435.66;;;-142.21;100.00
5053;BME280;2545;50.892;5.740;2024-02-15T01:04:06;56410.16;;;-142.21;100.00
5053;BME280;2545;50.892;5.740;2024-02-15T01:06:33;56392.50;;;-142.21;100.00
5053;BME280;2545;50.892;5.740;2024-02-15T01:08:59;56400.34;;;-142.21;100.00
5053;BME280;2545;50.892;5.740;2024-02-15T01:11:27;56416.03;;;-142.21;100.00
5053;BME280;2545;50.892;5.740;2024-02-15T01:13:53;56374.84;;;-142.21;100.00
5053;BME280;2545;50.892;5.740;2024-02-15T01:16:19;56418.00;;;-142.21;100.00
5053;BME280;2545;50.892;5.740;2024-02-15T01:18:44;56412.13;;;-142.21;100.00
5053;BME280;2545;50.892;5.740;2024-02-15T01:21:09;56378.78;;;-142.21;100.00
5053;BME280;2545;50.892;5.740;2024-02-15T01:23:36;56443.50;;;-142.21;100.00
5053;BME280;2545;50.892;5.740;2024-02-15T01:26:02;56392.50;;;-142.21;100.00
5053;BME280;2545;50.892;5.740;2024-02-15T01:28:27;56423.88;;;-142.21;100.00
5053;BME280;2545;50.892;5.740;2024-02-15T01:30:53;56437.59;;;-142.21;100.00
5053;BME280;2545;50.892;5.740;2024-02-15T01:33:19;56404.28;;;-142.21;100.00
5053;BME280;2545;50.892;5.740;2024-02-15T01:35:45;56394.47;;;-142.21;100.00
5053;BME280;2545;50.892;5.740;2024-02-15T01:38:10;56437.59;;;-142.21;100.00
5053;BME280;2545;50.892;5.740;2024-02-15T01:40:36;56384.66;;;-142.21;100.00
5053;BME280;2545;50.892;5.740;2024-02-15T01:43:02;56404.28;;;-142.21;100.00
5053;BME280;2545;50.892;5.740;2024-02-15T01:45:28;56396.44;;;-142.21;100.00
5053;BME280;2545;50.892;5.740;2024-02-15T01:47:54;56435.66;;;-142.21;100.00
5053;BME280;2545;50.892;5.740;2024-02-15T01:50:21;56408.19;;;-142.21;100.00
5053;BME280;2545;50.892;5.740;2024-02-15T01:52:49;56380.75;;;-142.21;100.00
5053;BME280;2545;50.892;5.740;2024-02-15T01:55:17;56374.84;;;-142.21;100.00
5053;BME280;2545;50.892;5.740;2024-02-15T01:57:44;56400.34;;;-142.21;100.00
5053;BME280;2545;50.892;5.740;2024-02-15T02:00:13;56429.75;;;-142.21;100.00
5053;BME280;2545;50.892;5.740;2024-02-15T02:02:39;56419.97;;;-142.21;100.00
5053;BME280;2545;50.892;5.740;2024-02-15T02:05:07;56406.22;;;-142.21;100.00
5053;BME280;2545;50.892;5.740;2024-02-15T02:07:33;56416.03;;;-142.21;100.00
5053;BME280;2545;50.892;5.740;2024-02-15T02:09:58;56418.00;;;-142.21;100.00
5053;BME280;2545;50.892;5.740;2024-02-15T02:12:23;56380.75;;;-142.21;100.00
5053;BME280;2545;50.892;5.740;2024-02-15T02:14:53;56392.50;;;-142.21;100.00
5053;BME280;2545;50.892;5.740;2024-02-15T02:17:19;56361.13;;;-142.21;100.00
5053;BME280;2545;50.892;5.740;2024-02-15T02:19:45;56382.69;;;-142.21;100.00
5053;BME280;2545;50.892;5.740;2024-02-15T02:22:11;56398.38;;;-142.21;100.00
5053;BME280;2545;50.892;5.740;2024-02-15T02:25:05;56390.53;;;-142.21;100.00
5053;BME280;2545;50.892;5.740;2024-02-15T02:27:32;56392.50;;;-142.21;100.00
5053;BME280;2545;50.892;5.740;2024-02-15T02:29:57;56365.06;;;-142.21;100.00
5053;BME280;2545;50.892;5.740;2024-02-15T02:32:24;56416.03;;;-142.21;100.00
5053;BME280;2545;50.892;5.740;2024-02-15T02:34:50;56378.78;;;-142.21;100.00
5053;BME280;2545;50.892;5.740;2024-02-15T02:37:15;56427.81;;;-142.21;100.00
5053;BME280;2545;50.892;5.740;2024-02-15T02:39:41;56412.13;;;-142.21;100.00
5053;BME280;2545;50.892;5.740;2024-02-15T02:42:08;56410.16;;;-142.21;100.00
5053;BME280;2545;50.892;5.740;2024-02-15T02:44:33;56404.28;;;-142.21;100.00
5053;BME280;2545;50.892;5.740;2024-02-15T02:46:59;56400.34;;;-142.21;100.00
5053;BME280;2545;50.892;5.740;2024-02-15T02:49:24;56427.81;;;-142.21;100.00
5053;BME280;2545;50.892;5.740;2024-02-15T02:51:50;56372.91;;;-142.21;100.00
5053;BME280;2545;50.892;5.740;2024-02-15T02:54:15;56402.31;;;-142.21;100.00
5053;BME280;2545;50.892;5.740;2024-02-15T02:56:41;56419.97;;;-142.21;100.00
5053;BME280;2545;50.892;5.740;2024-02-15T02:59:09;56419.97;;;-142.21;100.00
5053;BME280;2545;50.892;5.740;2024-02-15T03:01:34;56402.31;;;-142.21;100.00
5053;BME280;2545;50.892;5.740;2024-02-15T03:03:59;56418.00;;;-142.21;100.00
5053;BME280;2545;50.892;5.740;2024-02-15T03:06:25;56423.88;;;-142.21;100.00
5053;BME280;2545;50.892;5.740;2024-02-15T03:08:50;56390.53;;;-142.21;100.00
5053;BME280;2545;50.892;5.740;2024-02-15T03:11:19;56408.19;;;-142.21;100.00
5053;BME280;2545;50.892;5.740;2024-02-15T03:13:44;56394.47;;;-142.21;100.00
5053;BME280;2545;50.892;5.740;2024-02-15T03:16:09;56408.19;;;-142.21;100.00
5053;BME280;2545;50.892;5.740;2024-02-15T03:18:35;56398.38;;;-142.21;100.00
5053;BME280;2545;50.892;5.740;2024-02-15T03:21:00;56394.47;;;-142.21;100.00
5053;BME280;2545;50.892;5.740;2024-02-15T03:23:25;56410.16;;;-142.21;100.00
5053;BME280;2545;50.892;5.740;2024-02-15T03:25:51;56400.34;;;-142.21;100.00
5053;BME280;2545;50.892;5.740;2024-02-15T03:28:16;56408.19;;;-142.21;100.00
5053;BME280;2545;50.892;5.740;2024-02-15T03:30:41;56394.47;;;-142.21;100.00
5053;BME280;2545;50.892;5.740;2024-02-15T03:33:08;56433.69;;;-142.21;100.00
5053;BME280;2545;50.892;5.740;2024-02-15T03:35:33;56392.50;;;-142.21;100.00
5053;BME280;2545;50.892;5.740;2024-02-15T03:37:59;56433.69;;;-142.21;100.00
5053;BME280;2545;50.892;5.740;2024-02-15T03:40:26;56418.00;;;-142.21;100.00
5053;BME280;2545;50.892;5.740;2024-02-15T03:42:52;56425.84;;;-142.21;100.00
5053;BME280;2545;50.892;5.740;2024-02-15T03:45:18;56386.63;;;-142.21;100.00
5053;BME280;2545;50.892;5.740;2024-02-15T03:47:43;56398.38;;;-142.21;100.00
5053;BME280;2545;50.892;5.740;2024-02-15T03:50:09;56429.75;;;-142.21;100.00
5053;BME280;2545;50.892;5.740;2024-02-15T03:52:35;56412.13;;;-142.21;100.00
5053;BME280;2545;50.892;5.740;2024-02-15T03:55:00;56441.53;;;-142.21;100.00
5053;BME280;2545;50.892;5.740;2024-02-15T03:57:27;56414.06;;;-142.21;100.00
5053;BME280;2545;50.892;5.740;2024-02-15T03:59:53;56404.28;;;-142.21;100.00
5053;BME280;2545;50.892;5.740;2024-02-15T04:02:20;56378.78;;;-142.21;100.00
5053;BME280;2545;50.892;5.740;2024-02-15T04:04:45;56421.91;;;-142.21;100.00
5053;BME280;2545;50.892;5.740;2024-02-15T04:07:13;56378.78;;;-142.21;100.00
5053;BME280;2545;50.892;5.740;2024-02-15T04:09:40;56400.34;;;-142.21;100.00
5053;BME280;2545;50.892;5.740;2024-02-15T04:12:05;56396.44;;;-142.21;100.00
5053;BME280;2545;50.892;5.740;2024-02-15T04:14:32;56386.63;;;-142.21;100.00
5053;BME280;2545;50.892;5.740;2024-02-15T04:16:59;56374.84;;;-142.21;100.00
5053;BME280;2545;50.892;5.740;2024-02-15T04:19:27;56421.91;;;-142.21;100.00
5053;BME280;2545;50.892;5.740;2024-02-15T04:21:52;56394.47;;;-142.21;100.00
5053;BME280;2545;50.892;5.740;2024-02-15T04:24:17;56378.78;;;-142.21;100.00
5053;BME280;2545;50.892;5.740;2024-02-15T04:26:43;56372.91;;;-142.21;100.00
5053;BME280;2545;50.892;5.740;2024-02-15T04:29:08;56406.22;;;-142.21;100.00
5053;BME280;2545;50.892;5.740;2024-02-15T04:31:37;56425.84;;;-142.21;100.00
5053;BME280;2545;50.892;5.740;2024-02-15T04:34:04;56396.44;;;-142.21;100.00
5053;BME280;2545;50.892;5.740;2024-02-15T04:36:29;56404.28;;;-142.21;100.00
5053;BME280;2545;50.892;5.740;2024-02-15T04:38:59;56398.38;;;-142.21;100.00
5053;BME280;2545;50.892;5.740;2024-02-15T04:41:25;56418.00;;;-142.21;100.00
5053;BME280;2545;50.892;5.740;2024-02-15T04:43:50;56425.84;;;-142.21;100.00
5053;BME280;2545;50.892;5.740;2024-02-15T04:46:15;56396.44;;;-142.21;100.00
5053;BME280;2545;50.892;5.740;2024-02-15T04:48:41;56398.38;;;-142.21;100.00
5053;BME280;2545;50.892;5.740;2024-02-15T04:51:08;56400.34;;;-142.21;100.00
5053;BME280;2545;50.892;5.740;2024-02-15T04:53:34;56414.06;;;-142.21;100.00
5053;BME280;2545;50.892;5.740;2024-02-15T04:56:01;56414.06;;;-142.21;100.00
5053;BME280;2545;50.892;5.740;2024-02-15T04:58:32;56404.28;;;-142.21;100.00
5053;BME280;2545;50.892;5.740;2024-02-15T05:01:02;56386.63;;;-142.21;100.00
5053;BME280;2545;50.892;5.740;2024-02-15T05:03:32;56418.00;;;-142.21;100.00
5053;BME280;2545;50.892;5.740;2024-02-15T05:06:00;56406.22;;;-142.21;100.00
5053;BME280;2545;50.892;5.740;2024-02-15T05:08:26;56390.53;;;-142.21;100.00
5053;BME280;2545;50.892;5.740;2024-02-15T05:10:51;56384.66;;;-142.21;100.00
5053;BME280;2545;50.892;5.740;2024-02-15T05:13:21;56402.31;;;-142.21;100.00
5053;BME280;2545;50.892;5.740;2024-02-15T05:15:47;56414.06;;;-142.21;100.00
5053;BME280;2545;50.892;5.740;2024-02-15T05:18:13;56402.31;;;-142.21;100.00
5053;BME280;2545;50.892;5.740;2024-02-15T05:20:38;56421.91;;;-142.21;100.00
5053;BME280;2545;50.892;5.740;2024-02-15T05:23:06;56388.59;;;-142.21;100.00
5053;BME280;2545;50.892;5.740;2024-02-15T05:25:31;56408.19;;;-142.21;100.00
5053;BME280;2545;50.892;5.740;2024-02-15T05:27:58;56388.59;;;-142.21;100.00
5053;BME280;2545;50.892;5.740;2024-02-15T05:30:24;56429.75;;;-142.21;100.00
5053;BME280;2545;50.892;5.740;2024-02-15T05:32:49;56398.38;;;-142.21;100.00
5053;BME280;2545;50.892;5.740;2024-02-15T05:35:15;56368.97;;;-142.21;100.00
5053;BME280;2545;50.892;5.740;2024-02-15T05:37:40;56427.81;;;-142.21;100.00
5053;BME280;2545;50.892;5.740;2024-02-15T05:40:06;56410.16;;;-142.21;100.00
5053;BME280;2545;50.892;5.740;2024-02-15T05:42:32;56408.19;;;-142.21;100.00
5053;BME280;2545;50.892;5.740;2024-02-15T05:45:27;56361.13;;;-142.21;100.00
5053;BME280;2545;50.892;5.740;2024-02-15T05:47:58;56419.97;;;-142.21;100.00
5053;BME280;2545;50.892;5.740;2024-02-15T05:50:23;56421.91;;;-142.21;100.00
5053;BME280;2545;50.892;5.740;2024-02-15T05:52:49;56400.34;;;-142.21;100.00
5053;BME280;2545;50.892;5.740;2024-02-15T05:55:18;56425.84;;;-142.21;100.00
5053;BME280;2545;50.892;5.740;2024-02-15T05:57:44;56437.59;;;-142.21;99.94
5053;BME280;2545;50.892;5.740;2024-02-15T06:00:10;56416.03;;;-142.21;99.17
5053;BME280;2545;50.892;5.740;2024-02-15T06:02:35;56398.38;;;-142.21;98.49
5053;BME280;2545;50.892;5.740;2024-02-15T06:05:01;56378.78;;;-142.21;97.67
5053;BME280;2545;50.892;5.740;2024-02-15T06:07:29;56372.91;;;-142.21;97.85
5053;BME280;2545;50.892;5.740;2024-02-15T06:09:57;56390.53;;;-142.21;97.51
5053;BME280;2545;50.892;5.740;2024-02-15T06:12:22;56378.78;;;-142.21;96.61
5053;BME280;2545;50.892;5.740;2024-02-15T06:14:47;56408.19;;;-142.21;96.51
5053;BME280;2545;50.892;5.740;2024-02-15T06:17:13;56412.13;;;-142.21;96.97
5053;BME280;2545;50.892;5.740;2024-02-15T06:19:39;56370.94;;;-142.21;96.12
5053;BME280;2545;50.892;5.740;2024-02-15T06:22:05;56376.81;;;-142.21;96.42
5053;BME280;2545;50.892;5.740;2024-02-15T06:24:30;56396.44;;;-142.21;95.58
5053;BME280;2545;50.892;5.740;2024-02-15T06:26:56;56396.44;;;-142.21;94.93
5053;BME280;2545;50.892;5.740;2024-02-15T06:29:27;56386.63;;;-142.21;94.54
5053;BME280;2545;50.892;5.740;2024-02-15T06:32:12;56421.91;;;-142.21;94.05
5053;BME280;2545;50.892;5.740;2024-02-15T06:34:56;56386.63;;;-142.21;92.41
5053;BME280;2545;50.892;5.740;2024-02-15T06:37:40;56410.16;;;-142.21;92.56
5053;BME280;2545;50.892;5.740;2024-02-15T06:40:27;56380.75;;;-142.21;92.02
5053;BME280;2545;50.892;5.740;2024-02-15T06:42:54;56429.75;;;-142.21;90.70
5053;BME280;2545;50.892;5.740;2024-02-15T06:45:20;56394.47;;;-142.21;90.99
5053;BME280;2545;50.892;5.740;2024-02-15T06:47:46;56398.38;;;-142.21;91.79
5053;BME280;2545;50.892;5.740;2024-02-15T06:50:13;56384.66;;;-142.21;90.64
5053;BME280;2545;50.892;5.740;2024-02-15T06:52:42;56412.13;;;-142.21;90.02
5053;BME280;2545;50.892;5.740;2024-02-15T06:55:09;56374.84;;;-142.21;89.34
5053;BME280;2545;50.892;5.740;2024-02-15T06:57:40;56402.31;;;-142.21;88.66
5053;BME280;2545;50.892;5.740;2024-02-15T07:00:07;56378.78;;;-142.21;88.48
5053;BME280;2545;50.892;5.740;2024-02-15T07:02:34;56363.09;;;-142.21;89.21
5053;BME280;2545;50.892;5.740;2024-02-15T07:05:00;56374.84;;;-142.21;89.89
5053;BME280;2545;50.892;5.740;2024-02-15T07:07:26;56376.81;;;-142.21;88.80
5053;BME280;2545;50.892;5.740;2024-02-15T07:09:51;56414.06;;;-142.21;89.16
5053;BME280;2545;50.892;5.740;2024-02-15T07:12:17;56368.97;;;-142.21;88.48
5053;BME280;2545;50.892;5.740;2024-02-15T07:14:45;56368.97;;;-142.21;87.92
5053;BME280;2545;50.892;5.740;2024-02-15T07:17:12;56400.34;;;-142.21;88.11
5053;BME280;2545;50.892;5.740;2024-02-15T07:19:42;56394.47;;;-142.21;88.57
5053;BME280;2545;50.892;5.740;2024-02-15T07:22:09;56382.69;;;-142.21;88.18
5053;BME280;2545;50.892;5.740;2024-02-15T07:24:35;56419.97;;;-142.21;87.95
5053;BME280;2545;50.892;5.740;2024-02-15T07:27:06;56404.28;;;-142.21;86.61
5053;BME280;2545;50.892;5.740;2024-02-15T07:29:32;56386.63;;;-142.21;86.17
5053;BME280;2545;50.892;5.740;2024-02-15T07:32:03;56370.94;;;-142.21;85.80
5053;BME280;2545;50.892;5.740;2024-02-15T07:34:32;56363.09;;;-142.21;85.28
5053;BME280;2545;50.892;5.740;2024-02-15T07:37:02;56398.38;;;-142.21;85.23
5053;BME280;2545;50.892;5.740;2024-02-15T07:39:27;56412.13;;;-142.21;85.29
5053;BME280;2545;50.892;5.740;2024-02-15T07:41:56;56351.31;;;-142.21;84.99
5053;BME280;2545;50.892;5.740;2024-02-15T07:44:24;56394.47;;;-142.21;85.42
5053;BME280;2545;50.892;5.740;2024-02-15T07:46:50;56388.59;;;-142.21;84.50
5053;BME280;2545;50.892;5.740;2024-02-15T07:49:15;56414.06;;;-142.21;83.80
5053;BME280;2545;50.892;5.740;2024-02-15T07:51:43;56380.75;;;-142.21;83.29
5053;BME280;2545;50.892;5.740;2024-02-15T07:54:09;56398.38;;;-142.21;82.55
5053;BME280;2545;50.892;5.740;2024-02-15T07:56:34;56372.91;;;-142.21;82.58
5053;BME280;2545;50.892;5.740;2024-02-15T07:59:00;56402.31;;;-142.21;81.72
5053;BME280;2545;50.892;5.740;2024-02-15T08:01:26;56394.47;;;-142.21;81.76
5053;BME280;2545;50.892;5.740;2024-02-15T08:03:54;56370.94;;;-142.21;81.26
5053;BME280;2545;50.892;5.740;2024-02-15T08:06:20;56386.63;;;-142.21;81.17
5053;BME280;2545;50.892;5.740;2024-02-15T08:08:47;56402.31;;;-142.21;80.25
5053;BME280;2545;50.892;5.740;2024-02-15T08:11:13;56404.28;;;-142.21;80.25
5053;BME280;2545;50.892;5.740;2024-02-15T08:13:50;56392.50;;;-142.21;79.76
5053;BME280;2545;50.892;5.740;2024-02-15T08:16:22;56370.94;;;-142.21;78.98
5053;BME280;2545;50.892;5.740;2024-02-15T08:18:48;56347.41;;;-142.21;78.85
5053;BME280;2545;50.892;5.740;2024-02-15T08:21:17;56372.91;;;-142.21;78.51
5053;BME280;2545;50.892;5.740;2024-02-15T08:23:46;56388.59;;;-142.21;77.46
5053;BME280;2545;50.892;5.740;2024-02-15T08:26:11;56402.31;;;-142.21;77.42
5053;BME280;2545;50.892;5.740;2024-02-15T08:28:37;56368.97;;;-142.21;78.11
5053;BME280;2545;50.892;5.740;2024-02-15T08:31:02;56382.69;;;-142.21;77.94
5053;BME280;2545;50.892;5.740;2024-02-15T08:33:29;56374.84;;;-142.21;76.89
5053;BME280;2545;50.892;5.740;2024-02-15T08:35:55;56370.94;;;-142.21;76.42
5053;BME280;2545;50.892;5.740;2024-02-15T08:38:24;56359.16;;;-142.21;76.87
5053;BME280;2545;50.892;5.740;2024-02-15T08:40:50;56380.75;;;-142.21;76.46
5053;BME280;2545;50.892;5.740;2024-02-15T08:43:16;56376.81;;;-142.21;75.63
5053;BME280;2545;50.892;5.740;2024-02-15T08:45:42;56374.84;;;-142.21;74.33
5053;BME280;2545;50.892;5.740;2024-02-15T08:48:08;56374.84;;;-142.21;73.91
5053;BME280;2545;50.892;5.740;2024-02-15T08:50:34;56388.59;;;-142.21;74.48
5053;BME280;2545;50.892;5.740;2024-02-15T08:53:00;56370.94;;;-142.21;74.35
5053;BME280;2545;50.892;5.740;2024-02-15T08:55:26;56390.53;;;-142.21;74.36
5053;BME280;2545;50.892;5.740;2024-02-15T08:57:53;56394.47;;;-142.21;74.50
5053;BME280;2545;50.892;5.740;2024-02-15T09:00:20;56384.66;;;-142.21;74.07
5053;BME280;2545;50.892;5.740;2024-02-15T09:02:46;56359.16;;;-142.21;74.19
5053;BME280;2545;50.892;5.740;2024-02-15T09:05:13;56363.09;;;-142.21;73.54
5053;BME280;2545;50.892;5.740;2024-02-15T09:07:40;56390.53;;;-142.21;73.48
5053;BME280;2545;50.892;5.740;2024-02-15T09:10:11;56396.44;;;-142.21;72.79
5053;BME280;2545;50.892;5.740;2024-02-15T09:12:37;56367.00;;;-142.21;73.30
5053;BME280;2545;50.892;5.740;2024-02-15T09:15:09;56374.84;;;-142.21;72.74
5053;BME280;2545;50.892;5.740;2024-02-15T09:17:38;56359.16;;;-142.21;71.72
5053;BME280;2545;50.892;5.740;2024-02-15T09:20:11;56414.06;;;-142.21;72.06
5053;BME280;2545;50.892;5.740;2024-02-15T09:22:42;56355.25;;;-142.21;71.37
5053;BME280;2545;50.892;5.740;2024-02-15T09:25:11;56349.38;;;-142.21;71.05
5053;BME280;2545;50.892;5.740;2024-02-15T09:27:38;56343.47;;;-142.21;70.55
5053;BME280;2545;50.892;5.740;2024-02-15T09:30:04;56347.41;;;-142.21;70.50
5053;BME280;2545;50.892;5.740;2024-02-15T09:32:34;56394.47;;;-142.21;70.48
5053;BME280;2545;50.892;5.740;2024-02-15T09:35:00;56359.16;;;-142.21;70.04
5053;BME280;2545;50.892;5.740;2024-02-15T09:37:25;56335.63;;;-142.21;69.59
5053;BME280;2545;50.892;5.740;2024-02-15T09:39:53;56392.50;;;-142.21;69.55
5053;BME280;2545;50.892;5.740;2024-02-15T09:42:20;56351.31;;;-142.21;70.03
5053;BME280;2545;50.892;5.740;2024-02-15T09:44:46;56394.47;;;-142.21;69.01
5053;BME280;2545;50.892;5.740;2024-02-15T09:47:12;56345.44;;;-142.21;68.62
5053;BME280;2545;50.892;5.740;2024-02-15T09:49:40;56406.22;;;-142.21;68.46
5053;BME280;2545;50.892;5.740;2024-02-15T09:52:07;56349.38;;;-142.21;67.84
5053;BME280;2545;50.892;5.740;2024-02-15T09:54:39;56361.13;;;-142.21;67.23
5053;BME280;2545;50.892;5.740;2024-02-15T09:57:06;56365.06;;;-142.21;66.53
5053;BME280;2545;50.892;5.740;2024-02-15T09:59:33;56357.22;;;-142.21;66.68
5053;BME280;2545;50.892;5.740;2024-02-15T10:02:01;56363.09;;;-142.21;65.73
5053;BME280;2545;50.892;5.740;2024-02-15T10:04:27;56333.69;;;-142.21;65.58
5053;BME280;2545;50.892;5.740;2024-02-15T10:06:53;56351.31;;;-142.21;65.22
5053;BME280;2545;50.892;5.740;2024-02-15T10:09:28;56359.16;;;-142.21;65.54
5053;BME280;2545;50.892;5.740;2024-02-15T10:11:59;56357.22;;;-142.21;64.60
5053;BME280;2545;50.892;5.740;2024-02-15T10:14:27;56388.59;;;-142.21;64.77
5053;BME280;2545;50.892;5.740;2024-02-15T10:16:54;56337.59;;;-142.21;64.55
5053;BME280;2545;50.892;5.740;2024-02-15T10:19:20;56357.22;;;-142.21;64.60
5053;BME280;2545;50.892;5.740;2024-02-15T10:22:08;56368.97;;;-142.21;63.94
5053;BME280;2545;50.892;5.740;2024-02-15T10:24:34;56376.81;;;-142.21;62.55
5053;BME280;2545;50.892;5.740;2024-02-15T10:27:01;56370.94;;;-142.21;63.15
5053;BME280;2545;50.892;5.740;2024-02-15T10:29:31;56341.53;;;-142.21;62.30
5053;BME280;2545;50.892;5.740;2024-02-15T10:31:58;56351.31;;;-142.21;61.78
5053;BME280;2545;50.892;5.740;2024-02-15T10:34:27;56319.94;;;-142.21;61.45
5053;BME280;2545;50.892;5.740;2024-02-15T10:36:53;56351.31;;;-142.21;60.70
5053;BME280;2545;50.892;5.740;2024-02-15T10:39:21;56339.56;;;-142.21;59.83
5053;BME280;2545;50.892;5.740;2024-02-15T10:41:51;56333.69;;;-142.21;60.01
5053;BME280;2545;50.892;5.740;2024-02-15T10:44:18;56321.91;;;-142.21;59.45
5053;BME280;2545;50.892;5.740;2024-02-15T10:46:45;56343.47;;;-142.21;58.65
5053;BME280;2545;50.892;5.740;2024-02-15T10:49:11;56339.56;;;-142.21;59.00
5053;BME280;2545;50.892;5.740;2024-02-15T10:51:39;56351.31;;;-142.21;59.01
5053;BME280;2545;50.892;5.740;2024-02-15T10:54:12;56367.00;;;-142.21;59.22
5053;BME280;2545;50.892;5.740;2024-02-15T10:56:46;56300.34;;;-142.21;58.56
5053;BME280;2545;50.892;5.740;2024-02-15T10:59:19;56335.63;;;-142.21;58.94
5053;BME280;2545;50.892;5.740;2024-02-15T11:01:54;56347.41;;;-142.21;59.08
5053;BME280;2545;50.892;5.740;2024-02-15T11:04:31;56323.88;;;-142.21;58.14
5053;BME280;2545;50.892;5.740;2024-02-15T11:06:58;56331.72;;;-142.21;57.93
5053;BME280;2545;50.892;5.740;2024-02-15T11:09:27;56298.38;;;-142.21;58.00
5053;BME280;2545;50.892;5.740;2024-02-15T11:11:54;56347.41;;;-142.21;56.55
5053;BME280;2545;50.892;5.740;2024-02-15T11:14:27;56317.97;;;-142.21;56.88
5053;BME280;2545;50.892;5.740;2024-02-15T11:17:00;56310.13;;;-142.21;56.89
5053;BME280;2545;50.892;5.740;2024-02-15T11:19:43;56317.97;;;-142.21;55.81
5053;BME280;2545;50.892;5.740;2024-02-15T11:22:16;56355.25;;;-142.21;56.77
5053;BME280;2545;50.892;5.740;2024-02-15T11:24:50;56333.69;;;-142.21;56.57
5053;BME280;2545;50.892;5.740;2024-02-15T11:27:28;56316.03;;;-142.21;56.34
5053;BME280;2545;50.892;5.740;2024-02-15T11:29:59;56347.41;;;-142.21;56.50
5053;BME280;2545;50.892;5.740;2024-02-15T11:35:26;56314.06;;;-142.21;56.82
5053;BME280;2545;50.892;5.740;2024-02-15T11:37:58;56319.94;;;-142.21;57.46
5053;BME280;2545;50.892;5.740;2024-02-15T11:46:13;56333.69;;;-142.21;57.02
5053;BME280;2545;50.892;5.740;2024-02-15T11:48:38;56314.06;;;-142.21;56.68
5053;BME280;2545;50.892;5.740;2024-02-15T11:51:05;56310.13;;;-142.21;57.23
5053;BME280;2545;50.892;5.740;2024-02-15T11:53:33;56341.53;;;-142.21;57.50
5053;BME280;2545;50.892;5.740;2024-02-15T11:56:02;56325.84;;;-142.21;57.83
5053;BME280;2545;50.892;5.740;2024-02-15T11:58:30;56357.22;;;-142.21;58.44
5053;BME280;2545;50.892;5.740;2024-02-15T12:01:11;56335.63;;;-142.21;58.65
5053;BME280;2545;50.892;5.740;2024-02-15T12:03:56;56331.72;;;-142.21;59.42
5053;BME280;2545;50.892;5.740;2024-02-15T12:06:40;56351.31;;;-142.21;59.49
5053;BME280;2545;50.892;5.740;2024-02-15T12:09:24;56300.34;;;-142.21;59.24
5053;BME280;2545;50.892;5.740;2024-02-15T12:12:12;56347.41;;;-142.21;60.16
5053;BME280;2545;50.892;5.740;2024-02-15T12:15:00;56339.56;;;-142.21;60.07
5053;BME280;2545;50.892;5.740;2024-02-15T12:17:44;56304.25;;;-142.21;59.85
5053;BME280;2545;50.892;5.740;2024-02-15T12:20:28;56343.47;;;-142.21;60.04
5053;BME280;2545;50.892;5.740;2024-02-15T12:22:54;56337.59;;;-142.21;59.79
5053;BME280;2545;50.892;5.740;2024-02-15T12:25:20;56319.94;;;-142.21;59.90
5053;BME280;2545;50.892;5.740;2024-02-15T12:27:46;56316.03;;;-142.21;60.29
5053;BME280;2545;50.892;5.740;2024-02-15T12:30:18;56349.38;;;-142.21;60.27
5053;BME280;2545;50.892;5.740;2024-02-15T12:32:48;56367.00;;;-142.21;59.48
5053;BME280;2545;50.892;5.740;2024-02-15T12:35:19;56335.63;;;-142.21;59.26
5053;BME280;2545;50.892;5.740;2024-02-15T12:38:00;56331.72;;;-142.21;59.97
5053;BME280;2545;50.892;5.740;2024-02-15T12:40:35;56333.69;;;-142.21;60.09
5053;BME280;2545;50.892;5.740;2024-02-15T12:43:02;56317.97;;;-142.21;59.59
5053;BME280;2545;50.892;5.740;2024-02-15T12:45:31;56321.91;;;-142.21;60.33
5053;BME280;2545;50.892;5.740;2024-02-15T12:47:57;56316.03;;;-142.21;60.60
5053;BME280;2545;50.892;5.740;2024-02-15T12:50:27;56321.91;;;-142.21;61.32
5053;BME280;2545;50.892;5.740;2024-02-15T12:52:53;56321.91;;;-142.21;60.72
5053;BME280;2545;50.892;5.740;2024-02-15T12:55:21;56345.44;;;-142.21;60.66
5053;BME280;2545;50.892;5.740;2024-02-15T12:57:54;56351.31;;;-142.21;60.52
5053;BME280;2545;50.892;5.740;2024-02-15T13:00:22;56359.16;;;-142.21;60.73
5053;BME280;2545;50.892;5.740;2024-02-15T13:02:49;56331.72;;;-142.21;60.59
5053;BME280;2545;50.892;5.740;2024-02-15T13:05:17;56351.31;;;-142.21;60.58
5053;BME280;2545;50.892;5.740;2024-02-15T13:07:47;56351.31;;;-142.21;60.54